createdAt,value
2023-10-30T00:01:06.416Z,7.04
2023-10-30T00:06:18.538Z,6.97
2023-10-30T00:11:29.061Z,6.94
2023-10-30T00:16:36.597Z,6.96
2023-10-30T00:21:44.572Z,7.05
2023-10-30T00:26:51.875Z,7.08
2023-10-30T00:31:59.937Z,6.98
2023-10-30T00:37:07.694Z,6.96
2023-10-30T00:42:15.287Z,6.84
2023-10-30T00:47:23.804Z,6.71
2023-10-30T00:52:31.766Z,6.56
2023-10-30T00:57:39.523Z,6.56
2023-10-30T01:02:47.932Z,6.65
2023-10-30T01:07:55.929Z,6.67
2023-10-30T01:13:03.977Z,6.58
2023-10-30T01:18:11.626Z,6.45
2023-10-30T01:23:19.673Z,6.46
2023-10-30T01:28:27.406Z,6.57
2023-10-30T01:33:35.304Z,6.67
2023-10-30T01:38:42.708Z,6.76
2023-10-30T01:43:50.321Z,6.82
2023-10-30T01:48:57.702Z,6.74
2023-10-30T01:54:07.704Z,6.73
2023-10-30T01:59:15.682Z,6.80
2023-10-30T02:04:23.531Z,6.88
2023-10-30T02:09:31.527Z,6.86
2023-10-30T02:14:42.040Z,6.78
2023-10-30T02:19:49.983Z,6.84
2023-10-30T02:24:57.499Z,6.88
2023-10-30T02:30:06.182Z,6.84
2023-10-30T02:35:16.924Z,6.86
2023-10-30T02:40:24.857Z,6.85
2023-10-30T02:45:32.836Z,6.86
2023-10-30T02:50:40.343Z,6.77
2023-10-30T02:55:48.013Z,6.63
2023-10-30T03:00:57.334Z,6.59
2023-10-30T03:06:05.190Z,6.60
2023-10-30T03:11:12.722Z,6.64
2023-10-30T03:16:20.634Z,6.63
2023-10-30T03:21:28.159Z,6.51
2023-10-30T03:26:35.382Z,6.36
2023-10-30T03:31:44.079Z,6.27
2023-10-30T03:36:51.798Z,6.33
2023-10-30T03:41:59.363Z,6.46
2023-10-30T03:47:07.149Z,6.39
2023-10-30T03:52:16.499Z,6.32
2023-10-30T03:57:23.728Z,6.34
2023-10-30T04:02:31.718Z,6.43
2023-10-30T04:07:39.220Z,6.39
2023-10-30T04:12:47.373Z,6.42
2023-10-30T04:17:56.241Z,6.40
2023-10-30T04:23:03.626Z,6.30
2023-10-30T04:28:11.434Z,6.21
2023-10-30T04:33:20.567Z,6.09
2023-10-30T04:38:29.123Z,6.01
2023-10-30T04:43:37.204Z,5.98
2023-10-30T04:48:44.744Z,6.02
2023-10-30T04:53:52.294Z,6.04
2023-10-30T04:58:59.915Z,5.97
2023-10-30T05:04:08.693Z,5.89
2023-10-30T05:09:16.898Z,5.99
2023-10-30T05:14:24.934Z,6.15
2023-10-30T05:19:32.251Z,6.14
2023-10-30T05:24:41.160Z,6.15
2023-10-30T05:29:49.084Z,6.08
2023-10-30T05:34:57.685Z,5.96
2023-10-30T05:40:07.014Z,5.91
2023-10-30T05:45:15.260Z,5.94
2023-10-30T05:50:22.792Z,5.95
2023-10-30T05:55:30.122Z,5.97
2023-10-30T06:00:39.421Z,6.07
2023-10-30T06:05:47.603Z,6.28
2023-10-30T06:10:57.386Z,6.49
2023-10-30T06:16:05.569Z,6.66
2023-10-30T06:21:16.409Z,6.81
2023-10-30T06:26:23.931Z,6.87
2023-10-30T06:31:31.374Z,6.90
2023-10-30T06:36:40.352Z,6.99
2023-10-30T06:41:55.911Z,7.16
2023-10-30T06:47:04.066Z,7.33
2023-10-30T06:52:12.862Z,7.54
2023-10-30T06:57:20.640Z,7.73
2023-10-30T07:02:28.103Z,7.86
2023-10-30T07:07:35.340Z,7.93
2023-10-30T07:12:42.724Z,8.01
2023-10-30T07:17:50.365Z,8.14
2023-10-30T07:28:30.099Z,8.42
2023-10-30T07:33:37.843Z,8.54
2023-10-30T07:38:45.332Z,8.68
2023-10-30T07:43:54.658Z,8.88
2023-10-30T07:49:04.731Z,9.03
2023-10-30T07:54:12.689Z,9.18
2023-10-30T07:59:20.953Z,9.33
2023-10-30T08:14:39.544Z,9.87
2023-10-30T08:19:43.686Z,9.98
2023-10-30T08:24:48.055Z,10.12
2023-10-30T08:29:52.589Z,10.27
2023-10-30T08:35:01.038Z,10.45
2023-10-30T08:40:09.341Z,10.62
2023-10-30T08:45:13.863Z,10.76
2023-10-30T08:50:18.348Z,10.90
2023-10-30T08:55:23.803Z,11.02
2023-10-30T09:00:28.793Z,11.19
2023-10-30T09:09:03.119Z,11.53
2023-10-30T09:14:11.956Z,11.67
2023-10-30T09:19:19.761Z,11.83
2023-10-30T09:24:29.098Z,11.98
2023-10-30T09:29:36.912Z,12.13
2023-10-30T09:34:45.168Z,12.30
2023-10-30T09:39:53.247Z,12.48
2023-10-30T09:45:01.306Z,12.63
2023-10-30T09:50:11.909Z,12.74
2023-10-30T09:55:20.725Z,12.84
2023-10-30T10:00:29.438Z,12.93
2023-10-30T10:05:37.324Z,13.06
2023-10-30T10:11:03.191Z,13.20
2023-10-30T10:16:13.532Z,13.39
2023-10-30T10:21:23.040Z,13.56
2023-10-30T10:26:34.346Z,13.71
2023-10-30T10:31:45.578Z,13.85
2023-10-30T10:36:53.367Z,13.97
2023-10-30T10:42:01.901Z,14.10
2023-10-30T10:47:10.065Z,14.23
2023-10-30T10:52:19.332Z,14.31
2023-10-30T10:57:32.765Z,14.42
2023-10-30T11:02:46.216Z,14.57
2023-10-30T11:08:04.283Z,14.74
2023-10-30T11:13:23.147Z,14.91
2023-10-30T11:18:31.828Z,15.06
2023-10-30T11:23:59.111Z,15.21
2023-10-30T11:29:11.635Z,15.36
2023-10-30T11:34:19.214Z,15.50
2023-10-30T11:39:27.062Z,15.61
2023-10-30T11:44:35.242Z,15.69
2023-10-30T11:49:44.664Z,15.74
2023-10-30T11:54:53.143Z,15.78
2023-10-30T12:00:04.331Z,15.79
2023-10-30T12:05:13.615Z,15.83
2023-10-30T12:10:21.180Z,15.84
2023-10-30T12:15:31.221Z,15.86
2023-10-30T12:20:38.852Z,15.88
2023-10-30T12:25:47.506Z,15.90
2023-10-30T12:30:55.992Z,15.93
2023-10-30T12:36:05.207Z,16.00
2023-10-30T12:41:15.871Z,16.08
2023-10-30T12:46:23.427Z,16.14
2023-10-30T12:51:32.892Z,16.18
2023-10-30T12:56:41.614Z,16.23
2023-10-30T13:07:00.064Z,16.28
2023-10-30T13:12:08.797Z,16.32
2023-10-30T13:17:16.330Z,16.34
2023-10-30T13:22:25.333Z,16.39
2023-10-30T13:27:33.759Z,16.42
2023-10-30T13:32:41.374Z,16.45
2023-10-30T13:37:49.023Z,16.47
2023-10-30T13:43:01.789Z,16.52
2023-10-30T13:48:11.479Z,16.57
2023-10-30T13:53:19.418Z,16.59
2023-10-30T13:58:28.647Z,16.61
2023-10-30T14:03:36.586Z,16.64
2023-10-30T14:08:44.451Z,16.69
2023-10-30T14:13:54.367Z,16.70
2023-10-30T14:19:03.965Z,16.70
2023-10-30T14:24:12.965Z,16.73
2023-10-30T14:29:20.492Z,16.72
2023-10-30T14:34:28.370Z,16.73
2023-10-30T14:39:37.354Z,16.75
2023-10-30T14:44:44.985Z,16.75
2023-10-30T14:49:52.530Z,16.73
2023-10-30T14:55:00.377Z,16.65
2023-10-30T15:00:11.436Z,16.55
2023-10-30T15:05:19.676Z,16.41
2023-10-30T15:10:29.468Z,16.22
2023-10-30T15:15:37.285Z,16.04
2023-10-30T15:20:44.974Z,15.91
2023-10-30T15:25:52.554Z,15.80
2023-10-30T15:31:00.213Z,15.70
2023-10-30T15:36:09.949Z,15.60
2023-10-30T15:41:18.666Z,15.48
2023-10-30T15:46:26.188Z,15.31
2023-10-30T15:51:33.563Z,15.11
2023-10-30T16:07:03.207Z,14.66
2023-10-30T16:12:13.978Z,14.48
2023-10-30T16:17:22.455Z,14.34
2023-10-30T16:22:30.285Z,14.16
2023-10-30T16:32:14.092Z,14.03
2023-10-30T16:37:18.971Z,13.93
2023-10-30T16:42:22.964Z,13.82
2023-10-30T16:47:27.464Z,13.61
2023-10-30T16:52:32.761Z,13.26
2023-10-30T16:57:37.363Z,12.98
2023-10-30T17:02:41.545Z,12.89
2023-10-30T17:07:47.554Z,12.69
2023-10-30T17:12:53.262Z,12.47
2023-10-30T17:17:57.306Z,12.37
2023-10-30T17:28:50.425Z,12.23
2023-10-30T17:33:54.650Z,12.22
2023-10-30T17:38:59.099Z,12.02
2023-10-30T17:44:04.302Z,11.79
2023-10-30T17:49:08.654Z,11.60
2023-10-30T17:54:15.144Z,11.41
2023-10-30T17:59:20.319Z,11.27
2023-10-30T18:04:24.206Z,11.23
2023-10-30T18:09:28.350Z,11.32
2023-10-30T18:14:33.935Z,11.39
2023-10-30T18:19:37.998Z,11.34
2023-10-30T18:28:26.315Z,11.05
2023-10-30T18:33:33.777Z,10.99
2023-10-30T18:38:44.182Z,10.80
2023-10-30T18:43:51.932Z,10.68
2023-10-30T18:48:59.867Z,10.57
2023-10-30T18:54:08.182Z,10.46
2023-10-30T18:59:15.867Z,10.31
2023-10-30T19:04:23.416Z,10.29
2023-10-30T19:09:31.408Z,10.23
2023-10-30T19:14:39.012Z,10.16
2023-10-30T19:19:46.476Z,10.12
2023-10-30T19:24:53.906Z,10.08
2023-10-30T19:30:02.382Z,10.06
2023-10-30T19:35:11.366Z,10.01
2023-10-30T19:40:19.694Z,10.02
2023-10-30T19:45:32.031Z,10.00
2023-10-30T19:50:39.707Z,9.91
2023-10-30T19:55:47.420Z,9.82
2023-10-30T20:00:54.730Z,9.85
2023-10-30T20:06:02.050Z,9.84
2023-10-30T20:11:09.408Z,9.82
2023-10-30T20:16:17.073Z,9.80
2023-10-30T20:21:24.733Z,9.73
2023-10-30T20:28:34.013Z,9.66
2023-10-30T20:33:43.190Z,9.69
2023-10-30T20:38:50.437Z,9.76
2023-10-30T20:43:57.996Z,9.84
2023-10-30T20:49:05.360Z,9.92
2023-10-30T20:54:12.658Z,9.96
2023-10-30T20:59:20.266Z,9.95
2023-10-30T21:04:27.933Z,9.94
2023-10-30T21:09:35.297Z,9.93
2023-10-30T21:14:42.805Z,10.01
2023-10-30T21:19:50.670Z,10.15
2023-10-30T21:28:34.757Z,10.35
2023-10-30T21:33:42.434Z,10.43
2023-10-30T21:38:50.065Z,10.49
2023-10-30T21:43:59.416Z,10.49
2023-10-30T21:49:06.914Z,10.49
2023-10-30T21:54:14.451Z,10.53
2023-10-30T21:59:22.096Z,10.59
2023-10-30T22:04:29.683Z,10.59
2023-10-30T22:09:40.876Z,10.62
2023-10-30T22:14:51.819Z,10.63
2023-10-30T22:19:59.427Z,10.74
2023-10-30T22:25:08.142Z,10.83
2023-10-30T22:30:16.867Z,10.84
2023-10-30T22:35:24.879Z,10.86
2023-10-30T22:40:32.941Z,10.90
2023-10-30T22:45:40.569Z,10.91
2023-10-30T22:50:50.316Z,10.98
2023-10-30T22:55:57.983Z,11.05
2023-10-30T23:01:05.925Z,11.03
2023-10-30T23:06:13.444Z,11.03
2023-10-30T23:11:21.292Z,11.09
2023-10-30T23:16:28.846Z,11.14
2023-10-30T23:21:36.657Z,11.19
2023-10-30T23:26:44.312Z,11.23
2023-10-30T23:31:52.054Z,11.18
2023-10-30T23:36:59.510Z,11.15
2023-10-30T23:42:08.668Z,11.26
2023-10-30T23:47:16.417Z,11.42
2023-10-30T23:52:23.941Z,11.60
2023-10-30T23:57:31.492Z,11.71
